This is the latest recevied weather packets stored in our database for station/object W4CAT-13. If no packets are shown the sender has not sent any weather packets the latest 1 day(s).
| Time | Temp. | Humidity | Pressure | Rain* | Wind** | Luminosity | Snow |
|---|---|---|---|---|---|---|---|
| 1778042119 | 18.89° C | 77% | 970.9 hPa | 0 mm | 4.47 m/s, 242° | - | - |
| 1778041189 | 18.89° C | 79% | 970.9 hPa | 0 mm | 3.13 m/s, 231° | - | - |
| 1778040259 | 18.33° C | 80% | 971 hPa | 0 mm | 2.68 m/s, 222° | - | - |
| 1778039329 | 18.33° C | 82% | 971.2 hPa | 0 mm | 3.58 m/s, 218° | - | - |
| 1778038399 | 17.78° C | 84% | 971 hPa | 0 mm | 2.24 m/s, 220° | - | - |
| 1778037469 | 17.78° C | 85% | 971.6 hPa | 0 mm | 3.13 m/s, 224° | - | - |
| 1778036539 | 16.67° C | 88% | 971.2 hPa | 0 mm | 3.13 m/s, 228° | - | - |
| 1778035609 | 16.67° C | 89% | 971.2 hPa | 0 mm | 2.24 m/s, 207° | - | - |
| 1778034679 | 16.67° C | 90% | 971.6 hPa | 0 mm | 2.24 m/s, 225° | - | - |
| 1778033749 | 16.11° C | 92% | 971.6 hPa | 0 mm | 1.34 m/s, 213° | - | - |
| 1778032849 | 15.56° C | 93% | 971.2 hPa | 0 mm | 0.89 m/s, 211° | - | - |
| 1778031949 | 16.11° C | 92% | 971.5 hPa | 0 mm | 1.34 m/s, 213° | - | - |
| 1778031049 | 16.11° C | 90% | 971.6 hPa | 0.51 mm | 1.34 m/s, 223° | - | - |
| 1778030149 | 15.56° C | 91% | 971.6 hPa | 0.51 mm | 1.34 m/s, 212° | - | - |
| 1778029249 | 15.56° C | 90% | 971.6 hPa | 1.52 mm | 2.24 m/s, 211° | - | - |
| 1778028349 | 15.56° C | 88% | 971.9 hPa | 1.52 mm | 2.24 m/s, 235° | - | - |
| 1778027449 | 15° C | 91% | 971.6 hPa | 2.29 mm | 0.45 m/s, 208° | - | - |
| 1778026549 | 15° C | 93% | 971.6 hPa | 4.32 mm | 0.45 m/s, 253° | - | - |
| 1778025648 | 15° C | 92% | 971.2 hPa | 3.3 mm | 0.45 m/s, 226° | - | - |
| 1778024748 | 15.56° C | 89% | 971.9 hPa | 3.3 mm | 0.45 m/s, 92° | - | - |
| 1778023848 | 17.22° C | 77% | 972.2 hPa | 2.03 mm | 0.89 m/s, 167° | - | - |
| 1778022948 | 20° C | 57% | 972.6 hPa | 0 mm | 1.34 m/s, 251° | - | - |
| 1778022018 | 20° C | 53% | 971.9 hPa | 0 mm | 1.34 m/s, 214° | - | - |
| 1778021118 | 21.11° C | 50% | 971.9 hPa | 0 mm | 3.13 m/s, 248° | - | - |
| 1778020218 | 21.67° C | 50% | 971.9 hPa | 0 mm | 2.24 m/s, 230° | - | - |
* Rain latest hour (hover to see other rain measurements)
** Current wind speed in m/s (hover to see current wind gust speed)